GLO1740 SBBR-SBBV
Flight info
| Callsign | GLO1740 |
|---|---|
| Flight time | 3h 9m |
| Altitude | 38000 |
| Route | ILKUS DCT OPNAX UZ24 ILVIS DCT BVI |
| Aircraft | B738/M-SDFGIKLORWX/LB1 |
Departure
| Time | 2026-04-25 12:43 |
|---|---|
| Airport | Presidente Juscelino Kubitschek International Airport (SBBR) |
Arrival
| Time | 2026-04-25 15:52 |
|---|---|
| Airport | Atlas Brasil Cantanhede International Airport (SBBV) |
| Time | Latitude | Longitude | Altitude | Speed | Heading |
|---|---|---|---|---|---|
| 2026-04-25 12:18 | -15.86710 | -47.91843 | 3471 ft | 0 kts | 176° |
| 2026-04-25 12:36 | -15.86693 | -47.91844 | 3468 ft | 4 kts | 177° |
| 2026-04-25 12:36 | -15.86666 | -47.91846 | 3469 ft | 4 kts | 173° |
| 2026-04-25 12:36 | -15.86640 | -47.91852 | 3470 ft | 4 kts | 152° |
| 2026-04-25 12:37 | -15.86622 | -47.91866 | 3468 ft | 4 kts | 123° |
| 2026-04-25 12:37 | -15.86616 | -47.91891 | 3469 ft | 4 kts | 86° |
| 2026-04-25 12:37 | -15.86618 | -47.91909 | 3470 ft | 1 kts | 86° |
| 2026-04-25 12:39 | -15.86618 | -47.91908 | 3470 ft | 1 kts | 86° |
| 2026-04-25 12:39 | -15.86616 | -47.91888 | 3470 ft | 5 kts | 86° |
| 2026-04-25 12:39 | -15.86613 | -47.91840 | 3470 ft | 8 kts | 82° |
| 2026-04-25 12:39 | -15.86560 | -47.91811 | 3469 ft | 11 kts | 357° |
| 2026-04-25 12:40 | -15.86492 | -47.91857 | 3468 ft | 14 kts | 274° |
| 2026-04-25 12:40 | -15.86500 | -47.91970 | 3467 ft | 17 kts | 266° |
| 2026-04-25 12:40 | -15.86508 | -47.92101 | 3467 ft | 19 kts | 266° |
| 2026-04-25 12:40 | -15.86517 | -47.92245 | 3468 ft | 21 kts | 267° |
| 2026-04-25 12:41 | -15.86527 | -47.92401 | 3467 ft | 23 kts | 266° |
| 2026-04-25 12:41 | -15.86539 | -47.92577 | 3463 ft | 26 kts | 266° |
| 2026-04-25 12:41 | -15.86545 | -47.92744 | 3462 ft | 20 kts | 288° |
| 2026-04-25 12:41 | -15.86427 | -47.92767 | 3460 ft | 19 kts | 15° |
| 2026-04-25 12:42 | -15.86353 | -47.92660 | 3460 ft | 19 kts | 81° |
| 2026-04-25 12:42 | -15.86345 | -47.92535 | 3462 ft | 44 kts | 87° |
| 2026-04-25 12:42 | -15.86289 | -47.91697 | 3463 ft | 127 kts | 86° |
| 2026-04-25 12:42 | -15.86227 | -47.90599 | 3501 ft | 174 kts | 89° |
| 2026-04-25 12:43 | -15.86175 | -47.89255 | 3993 ft | 190 kts | 89° |
| 2026-04-25 12:43 | -15.86112 | -47.87896 | 4894 ft | 190 kts | 85° |
| 2026-04-25 12:43 | -15.84677 | -47.85425 | 5311 ft | 240 kts | 20° |
| 2026-04-25 12:44 | -15.82931 | -47.85305 | 5566 ft | 268 kts | 350° |
| 2026-04-25 12:44 | -15.81098 | -47.85869 | 6232 ft | 277 kts | 341° |
| 2026-04-25 12:44 | -15.77524 | -47.87328 | 7861 ft | 281 kts | 338° |
| 2026-04-25 12:45 | -15.75701 | -47.88079 | 8652 ft | 283 kts | 338° |
| 2026-04-25 12:45 | -15.73852 | -47.88826 | 9445 ft | 287 kts | 337° |
| 2026-04-25 12:45 | -15.70060 | -47.90325 | 10682 ft | 304 kts | 337° |
| 2026-04-25 12:46 | -15.68002 | -47.91129 | 10861 ft | 327 kts | 338° |
| 2026-04-25 12:46 | -15.65804 | -47.91978 | 11057 ft | 345 kts | 338° |
| 2026-04-25 12:46 | -15.63520 | -47.92857 | 11556 ft | 353 kts | 338° |
| 2026-04-25 12:46 | -15.61201 | -47.93745 | 12228 ft | 355 kts | 338° |
| 2026-04-25 12:47 | -15.58871 | -47.94633 | 12835 ft | 359 kts | 338° |
| 2026-04-25 12:47 | -15.56512 | -47.95532 | 13453 ft | 363 kts | 338° |
| 2026-04-25 12:47 | -15.54130 | -47.96439 | 14017 ft | 367 kts | 338° |
| 2026-04-25 12:47 | -15.51719 | -47.97357 | 14541 ft | 370 kts | 339° |
| 2026-04-25 12:48 | -15.49287 | -47.98282 | 15047 ft | 374 kts | 339° |
| 2026-04-25 12:48 | -15.46838 | -47.99213 | 15586 ft | 377 kts | 339° |
| 2026-04-25 12:48 | -15.44360 | -48.00156 | 16091 ft | 381 kts | 339° |
| 2026-04-25 12:48 | -15.41891 | -48.01094 | 16584 ft | 385 kts | 339° |
| 2026-04-25 12:49 | -15.39336 | -48.02065 | 17080 ft | 388 kts | 340° |
| 2026-04-25 12:49 | -15.36783 | -48.03034 | 17560 ft | 392 kts | 340° |
| 2026-04-25 12:49 | -15.34242 | -48.03999 | 18044 ft | 395 kts | 340° |
| 2026-04-25 12:49 | -15.31641 | -48.04986 | 18511 ft | 399 kts | 340° |
| 2026-04-25 12:50 | -15.29030 | -48.05978 | 18918 ft | 402 kts | 340° |
| 2026-04-25 12:50 | -15.26395 | -48.06978 | 19339 ft | 404 kts | 341° |
| 2026-04-25 12:50 | -15.23747 | -48.07983 | 19751 ft | 407 kts | 341° |
| 2026-04-25 12:50 | -15.21076 | -48.08996 | 20165 ft | 410 kts | 341° |
| 2026-04-25 12:51 | -15.18396 | -48.10013 | 20574 ft | 412 kts | 341° |
| 2026-04-25 12:51 | -15.15693 | -48.11038 | 20973 ft | 415 kts | 341° |
| 2026-04-25 12:51 | -15.12979 | -48.12067 | 21349 ft | 417 kts | 341° |
| 2026-04-25 12:51 | -15.10247 | -48.13103 | 21750 ft | 420 kts | 341° |
| 2026-04-25 12:52 | -15.07485 | -48.14149 | 22119 ft | 423 kts | 341° |
| 2026-04-25 12:52 | -15.04717 | -48.15198 | 22477 ft | 426 kts | 341° |
| 2026-04-25 12:52 | -15.01925 | -48.16256 | 22835 ft | 428 kts | 341° |
| 2026-04-25 12:52 | -14.99155 | -48.17305 | 23180 ft | 430 kts | 341° |
| 2026-04-25 12:53 | -14.96331 | -48.18373 | 23518 ft | 433 kts | 341° |
| 2026-04-25 12:53 | -14.93508 | -48.19526 | 23787 ft | 437 kts | 336° |
| 2026-04-25 12:53 | -14.90856 | -48.21081 | 24061 ft | 441 kts | 326° |
| 2026-04-25 12:53 | -14.88433 | -48.23051 | 24357 ft | 444 kts | 322° |
| 2026-04-25 12:54 | -14.86072 | -48.25108 | 24665 ft | 445 kts | 321° |
| 2026-04-25 12:54 | -14.83708 | -48.27194 | 24934 ft | 448 kts | 321° |
| 2026-04-25 12:54 | -14.81326 | -48.29294 | 25209 ft | 450 kts | 321° |
| 2026-04-25 12:54 | -14.78938 | -48.31385 | 25486 ft | 451 kts | 321° |
| 2026-04-25 12:55 | -14.76556 | -48.33457 | 25757 ft | 453 kts | 321° |
| 2026-04-25 12:55 | -14.74919 | -48.34875 | 25941 ft | 454 kts | 322° |
| 2026-04-25 12:55 | -14.71703 | -48.37651 | 26290 ft | 457 kts | 322° |
| 2026-04-25 12:55 | -14.69254 | -48.39758 | 26547 ft | 459 kts | 322° |
| 2026-04-25 12:56 | -14.66796 | -48.41872 | 26810 ft | 460 kts | 322° |
| 2026-04-25 12:56 | -14.64328 | -48.43994 | 27075 ft | 462 kts | 322° |
| 2026-04-25 12:56 | -14.61846 | -48.46128 | 27327 ft | 464 kts | 322° |
| 2026-04-25 12:56 | -14.59360 | -48.48264 | 27577 ft | 465 kts | 322° |
| 2026-04-25 12:57 | -14.56870 | -48.50404 | 27822 ft | 467 kts | 322° |
| 2026-04-25 12:57 | -14.54365 | -48.52556 | 28071 ft | 469 kts | 322° |
| 2026-04-25 12:57 | -14.51856 | -48.54711 | 28307 ft | 471 kts | 322° |
| 2026-04-25 12:57 | -14.49337 | -48.56874 | 28529 ft | 473 kts | 322° |
| 2026-04-25 12:58 | -14.46802 | -48.59050 | 28756 ft | 474 kts | 322° |
| 2026-04-25 12:58 | -14.44257 | -48.61234 | 28981 ft | 476 kts | 322° |
| 2026-04-25 12:58 | -14.41704 | -48.63424 | 29220 ft | 478 kts | 322° |
| 2026-04-25 12:58 | -14.39176 | -48.65592 | 29439 ft | 479 kts | 322° |
| 2026-04-25 12:59 | -14.36611 | -48.67792 | 29650 ft | 481 kts | 322° |
| 2026-04-25 12:59 | -14.34030 | -48.70005 | 29869 ft | 483 kts | 322° |
| 2026-04-25 12:59 | -14.31446 | -48.72218 | 30064 ft | 484 kts | 322° |
| 2026-04-25 12:59 | -14.28854 | -48.74439 | 30301 ft | 484 kts | 322° |
| 2026-04-25 13:00 | -14.26266 | -48.76656 | 30593 ft | 482 kts | 322° |
| 2026-04-25 13:00 | -14.25395 | -48.77401 | 30681 ft | 482 kts | 322° |
| 2026-04-25 13:00 | -14.21114 | -48.81066 | 31125 ft | 481 kts | 322° |
| 2026-04-25 13:00 | -14.18538 | -48.83270 | 31371 ft | 481 kts | 322° |
| 2026-04-25 13:01 | -14.15970 | -48.85466 | 31636 ft | 480 kts | 322° |
| 2026-04-25 13:01 | -14.13401 | -48.87663 | 31928 ft | 479 kts | 322° |
| 2026-04-25 13:01 | -14.10837 | -48.89855 | 32209 ft | 478 kts | 322° |
| 2026-04-25 13:01 | -14.08281 | -48.92038 | 32481 ft | 478 kts | 322° |
| 2026-04-25 13:02 | -14.05723 | -48.94224 | 32763 ft | 477 kts | 322° |
| 2026-04-25 13:02 | -14.03198 | -48.96380 | 33068 ft | 476 kts | 322° |
| 2026-04-25 13:02 | -14.00623 | -48.98579 | 33362 ft | 475 kts | 322° |
| 2026-04-25 13:02 | -13.98113 | -49.00721 | 33636 ft | 474 kts | 322° |
| 2026-04-25 13:03 | -13.95566 | -49.02895 | 33915 ft | 474 kts | 322° |
| 2026-04-25 13:03 | -13.93028 | -49.05060 | 34163 ft | 473 kts | 322° |
| 2026-04-25 13:03 | -13.90496 | -49.07220 | 34419 ft | 472 kts | 322° |
| 2026-04-25 13:03 | -13.87976 | -49.09368 | 34669 ft | 470 kts | 322° |
| 2026-04-25 13:04 | -13.85458 | -49.11516 | 34915 ft | 469 kts | 322° |
| 2026-04-25 13:04 | -13.82945 | -49.13656 | 35162 ft | 468 kts | 322° |
| 2026-04-25 13:04 | -13.80400 | -49.15726 | 35392 ft | 466 kts | 327° |
| 2026-04-25 13:04 | -13.77649 | -49.17472 | 35627 ft | 463 kts | 332° |
| 2026-04-25 13:05 | -13.74887 | -49.19091 | 35858 ft | 462 kts | 332° |
| 2026-04-25 13:05 | -13.72048 | -49.20721 | 36030 ft | 462 kts | 332° |
| 2026-04-25 13:05 | -13.66442 | -49.23947 | 36030 ft | 464 kts | 332° |
| 2026-04-25 13:06 | -13.60855 | -49.27212 | 36021 ft | 460 kts | 332° |
| 2026-04-25 13:06 | -13.55316 | -49.30473 | 36032 ft | 457 kts | 331° |
| 2026-04-25 13:07 | -13.49811 | -49.33717 | 36031 ft | 455 kts | 331° |
| 2026-04-25 13:07 | -13.45247 | -49.36403 | 36034 ft | 454 kts | 331° |
| 2026-04-25 13:08 | -13.39764 | -49.39628 | 36034 ft | 454 kts | 331° |
| 2026-04-25 13:08 | -13.34261 | -49.42862 | 36039 ft | 456 kts | 331° |
| 2026-04-25 13:09 | -13.28740 | -49.46105 | 36041 ft | 458 kts | 331° |
| 2026-04-25 13:09 | -13.23191 | -49.49363 | 36035 ft | 461 kts | 331° |
| 2026-04-25 13:10 | -13.17616 | -49.52634 | 36032 ft | 462 kts | 331° |
| 2026-04-25 13:10 | -13.12047 | -49.55901 | 36039 ft | 464 kts | 331° |
| 2026-04-25 13:11 | -13.06436 | -49.59191 | 36030 ft | 465 kts | 331° |
| 2026-04-25 13:11 | -13.00817 | -49.62484 | 36032 ft | 465 kts | 331° |
| 2026-04-25 13:12 | -12.95190 | -49.65780 | 36031 ft | 465 kts | 331° |
| 2026-04-25 13:12 | -12.90531 | -49.68528 | 36027 ft | 464 kts | 331° |
| 2026-04-25 13:13 | -12.84008 | -49.72396 | 36025 ft | 463 kts | 331° |
| 2026-04-25 13:13 | -12.78440 | -49.75696 | 36028 ft | 461 kts | 331° |
| 2026-04-25 13:14 | -12.72894 | -49.78978 | 36027 ft | 460 kts | 331° |
| 2026-04-25 13:14 | -12.67364 | -49.82248 | 36028 ft | 458 kts | 331° |
| 2026-04-25 13:15 | -12.61845 | -49.85509 | 36029 ft | 457 kts | 331° |
| 2026-04-25 13:15 | -12.56335 | -49.88764 | 36028 ft | 457 kts | 331° |
| 2026-04-25 13:16 | -12.50862 | -49.91994 | 36029 ft | 457 kts | 331° |
| 2026-04-25 13:16 | -12.45346 | -49.95249 | 36025 ft | 457 kts | 331° |
| 2026-04-25 13:17 | -12.39830 | -49.98502 | 36031 ft | 457 kts | 331° |
| 2026-04-25 13:17 | -12.34309 | -50.01757 | 36025 ft | 458 kts | 331° |
| 2026-04-25 13:18 | -12.28818 | -50.04993 | 36029 ft | 458 kts | 331° |
| 2026-04-25 13:18 | -12.23278 | -50.08255 | 36021 ft | 459 kts | 331° |
| 2026-04-25 13:19 | -12.17730 | -50.11521 | 36024 ft | 460 kts | 331° |
| 2026-04-25 13:19 | -12.13110 | -50.14239 | 36019 ft | 460 kts | 331° |
| 2026-04-25 13:20 | -12.06617 | -50.18057 | 36022 ft | 461 kts | 331° |
| 2026-04-25 13:20 | -12.01056 | -50.21326 | 36017 ft | 461 kts | 331° |
| 2026-04-25 13:21 | -11.95520 | -50.24578 | 36011 ft | 462 kts | 331° |
| 2026-04-25 13:21 | -11.89948 | -50.27850 | 36019 ft | 462 kts | 331° |
| 2026-04-25 13:22 | -11.84373 | -50.31123 | 36015 ft | 462 kts | 331° |
| 2026-04-25 13:23 | -11.76005 | -50.36032 | 36009 ft | 462 kts | 331° |
| 2026-04-25 13:23 | -11.70430 | -50.39300 | 36013 ft | 462 kts | 331° |
| 2026-04-25 13:24 | -11.64849 | -50.42571 | 36018 ft | 462 kts | 331° |
| 2026-04-25 13:24 | -11.59274 | -50.45836 | 36009 ft | 462 kts | 331° |
| 2026-04-25 13:25 | -11.53733 | -50.49080 | 36009 ft | 462 kts | 331° |
| 2026-04-25 13:25 | -11.48165 | -50.52339 | 36012 ft | 461 kts | 332° |
| 2026-04-25 13:26 | -11.42601 | -50.55595 | 36011 ft | 461 kts | 331° |
| 2026-04-25 13:26 | -11.37028 | -50.58853 | 36007 ft | 461 kts | 332° |
| 2026-04-25 13:27 | -11.31472 | -50.62103 | 36011 ft | 460 kts | 331° |
| 2026-04-25 13:27 | -11.25908 | -50.65359 | 36009 ft | 460 kts | 331° |
| 2026-04-25 13:28 | -11.20364 | -50.68601 | 36007 ft | 460 kts | 331° |
| 2026-04-25 13:28 | -11.14845 | -50.71827 | 36002 ft | 460 kts | 331° |
| 2026-04-25 13:29 | -11.09300 | -50.75067 | 36010 ft | 459 kts | 331° |
| 2026-04-25 13:29 | -11.03751 | -50.78307 | 36003 ft | 459 kts | 332° |
| 2026-04-25 13:30 | -10.95431 | -50.83163 | 36008 ft | 459 kts | 332° |
| 2026-04-25 13:31 | -10.87149 | -50.87995 | 36009 ft | 459 kts | 332° |
| 2026-04-25 13:31 | -10.81612 | -50.91223 | 36008 ft | 459 kts | 332° |
| 2026-04-25 13:32 | -10.76075 | -50.94449 | 36012 ft | 459 kts | 332° |
| 2026-04-25 13:32 | -10.70531 | -50.97679 | 36012 ft | 459 kts | 332° |
| 2026-04-25 13:33 | -10.64991 | -51.00905 | 36008 ft | 459 kts | 332° |
| 2026-04-25 13:33 | -10.59448 | -51.04132 | 36007 ft | 459 kts | 332° |
| 2026-04-25 13:34 | -10.53904 | -51.07359 | 36012 ft | 459 kts | 332° |
| 2026-04-25 13:34 | -10.48415 | -51.10685 | 36010 ft | 460 kts | 329° |
| 2026-04-25 13:35 | -10.43083 | -51.14225 | 36017 ft | 460 kts | 328° |
| 2026-04-25 13:35 | -10.37734 | -51.17814 | 36009 ft | 460 kts | 328° |
| 2026-04-25 13:36 | -10.32375 | -51.21375 | 36012 ft | 460 kts | 328° |
| 2026-04-25 13:36 | -10.26998 | -51.24924 | 36014 ft | 460 kts | 328° |
| 2026-04-25 13:37 | -10.21624 | -51.28463 | 36010 ft | 460 kts | 328° |
| 2026-04-25 13:37 | -10.16281 | -51.31980 | 36012 ft | 460 kts | 328° |
| 2026-04-25 13:38 | -10.10909 | -51.35516 | 36005 ft | 460 kts | 328° |
| 2026-04-25 13:38 | -10.05532 | -51.39054 | 36011 ft | 460 kts | 328° |
| 2026-04-25 13:39 | -10.00158 | -51.42589 | 36016 ft | 460 kts | 328° |
| 2026-04-25 13:39 | -9.94794 | -51.46116 | 36016 ft | 459 kts | 328° |
| 2026-04-25 13:40 | -9.89426 | -51.49644 | 36016 ft | 459 kts | 328° |
| 2026-04-25 13:40 | -9.84065 | -51.53166 | 36017 ft | 459 kts | 329° |
| 2026-04-25 13:41 | -9.78742 | -51.56662 | 36017 ft | 459 kts | 329° |
| 2026-04-25 13:41 | -9.73378 | -51.60183 | 36019 ft | 459 kts | 329° |
| 2026-04-25 13:42 | -9.68014 | -51.63703 | 36014 ft | 459 kts | 329° |
| 2026-04-25 13:42 | -9.62657 | -51.67217 | 36023 ft | 459 kts | 329° |
| 2026-04-25 13:43 | -9.57294 | -51.70733 | 36020 ft | 459 kts | 329° |
| 2026-04-25 13:43 | -9.51938 | -51.74244 | 36017 ft | 458 kts | 329° |
| 2026-04-25 13:44 | -9.46587 | -51.77751 | 36018 ft | 458 kts | 328° |
| 2026-04-25 13:44 | -9.41238 | -51.81254 | 36018 ft | 458 kts | 328° |
| 2026-04-25 13:45 | -9.35913 | -51.84740 | 36010 ft | 458 kts | 328° |
| 2026-04-25 13:45 | -9.30568 | -51.88238 | 36017 ft | 458 kts | 328° |
| 2026-04-25 13:46 | -9.25213 | -51.91742 | 36025 ft | 458 kts | 328° |
| 2026-04-25 13:46 | -9.19856 | -51.95246 | 36026 ft | 459 kts | 328° |
| 2026-04-25 13:47 | -9.14514 | -51.98738 | 36019 ft | 460 kts | 328° |
| 2026-04-25 13:47 | -9.09134 | -52.02254 | 36016 ft | 461 kts | 328° |
| 2026-04-25 13:48 | -9.03745 | -52.05774 | 36023 ft | 461 kts | 328° |
| 2026-04-25 13:48 | -8.98349 | -52.09298 | 36024 ft | 462 kts | 328° |
| 2026-04-25 13:49 | -8.92938 | -52.12831 | 36020 ft | 463 kts | 328° |
| 2026-04-25 13:49 | -8.87526 | -52.16362 | 36016 ft | 463 kts | 329° |
| 2026-04-25 13:50 | -8.82097 | -52.19905 | 36021 ft | 463 kts | 329° |
| 2026-04-25 13:50 | -8.76722 | -52.23410 | 36020 ft | 463 kts | 329° |
| 2026-04-25 13:51 | -8.71315 | -52.26936 | 36017 ft | 462 kts | 329° |
| 2026-04-25 13:51 | -8.65911 | -52.30458 | 36016 ft | 462 kts | 329° |
| 2026-04-25 13:52 | -8.60505 | -52.33981 | 36014 ft | 462 kts | 329° |
| 2026-04-25 13:52 | -8.55110 | -52.37495 | 36013 ft | 461 kts | 329° |
| 2026-04-25 13:53 | -8.49751 | -52.40990 | 36016 ft | 461 kts | 329° |
| 2026-04-25 13:53 | -8.44366 | -52.44505 | 36012 ft | 461 kts | 329° |
| 2026-04-25 13:54 | -8.38982 | -52.48018 | 36014 ft | 461 kts | 329° |
| 2026-04-25 13:54 | -8.33590 | -52.51534 | 36011 ft | 461 kts | 329° |
| 2026-04-25 13:55 | -8.28203 | -52.55047 | 36011 ft | 461 kts | 329° |
| 2026-04-25 13:55 | -8.22814 | -52.58559 | 36017 ft | 461 kts | 329° |
| 2026-04-25 13:56 | -8.18318 | -52.61488 | 36016 ft | 461 kts | 329° |
| 2026-04-25 13:56 | -8.12047 | -52.65573 | 36010 ft | 462 kts | 329° |
| 2026-04-25 13:57 | -8.06649 | -52.69088 | 36008 ft | 462 kts | 329° |
| 2026-04-25 13:57 | -8.01252 | -52.72601 | 36008 ft | 461 kts | 329° |
| 2026-04-25 13:58 | -7.95858 | -52.76110 | 36014 ft | 461 kts | 329° |
| 2026-04-25 13:58 | -7.91376 | -52.79026 | 36011 ft | 461 kts | 329° |
| 2026-04-25 13:59 | -7.85983 | -52.82533 | 36014 ft | 461 kts | 329° |
| 2026-04-25 13:59 | -7.80605 | -52.86030 | 36015 ft | 460 kts | 329° |
| 2026-04-25 14:00 | -7.75215 | -52.89533 | 36010 ft | 460 kts | 330° |
| 2026-04-25 14:00 | -7.69834 | -52.93029 | 36009 ft | 460 kts | 330° |
| 2026-04-25 14:01 | -7.64455 | -52.96522 | 36012 ft | 459 kts | 330° |
| 2026-04-25 14:01 | -7.59089 | -53.00007 | 36017 ft | 459 kts | 329° |
| 2026-04-25 14:02 | -7.53723 | -53.03490 | 36014 ft | 459 kts | 329° |
| 2026-04-25 14:02 | -7.48356 | -53.06973 | 36013 ft | 459 kts | 329° |
| 2026-04-25 14:03 | -7.43008 | -53.10442 | 36021 ft | 459 kts | 329° |
| 2026-04-25 14:03 | -7.37628 | -53.13931 | 36013 ft | 460 kts | 329° |
| 2026-04-25 14:04 | -7.32234 | -53.17428 | 36006 ft | 461 kts | 329° |
| 2026-04-25 14:04 | -7.26835 | -53.20928 | 36012 ft | 461 kts | 330° |
| 2026-04-25 14:05 | -7.21439 | -53.24424 | 36014 ft | 462 kts | 330° |
| 2026-04-25 14:05 | -7.16061 | -53.27907 | 36010 ft | 462 kts | 330° |
| 2026-04-25 14:06 | -7.10649 | -53.31412 | 36015 ft | 463 kts | 330° |
| 2026-04-25 14:06 | -7.05233 | -53.34919 | 36015 ft | 463 kts | 330° |
| 2026-04-25 14:07 | -6.99806 | -53.38432 | 36009 ft | 463 kts | 330° |
| 2026-04-25 14:07 | -6.94378 | -53.41944 | 36010 ft | 463 kts | 330° |
| 2026-04-25 14:08 | -6.88958 | -53.45450 | 36012 ft | 463 kts | 330° |
| 2026-04-25 14:08 | -6.83543 | -53.48952 | 36012 ft | 462 kts | 330° |
| 2026-04-25 14:09 | -6.78127 | -53.52454 | 36012 ft | 462 kts | 330° |
| 2026-04-25 14:09 | -6.72749 | -53.55930 | 36010 ft | 462 kts | 330° |
| 2026-04-25 14:10 | -6.67337 | -53.59427 | 36009 ft | 462 kts | 330° |
| 2026-04-25 14:10 | -6.61931 | -53.62919 | 35996 ft | 462 kts | 330° |
| 2026-04-25 14:11 | -6.56529 | -53.66408 | 36006 ft | 461 kts | 330° |
| 2026-04-25 14:11 | -6.51134 | -53.69891 | 36006 ft | 460 kts | 330° |
| 2026-04-25 14:12 | -6.45746 | -53.73370 | 36005 ft | 460 kts | 330° |
| 2026-04-25 14:12 | -6.40357 | -53.76847 | 36004 ft | 459 kts | 330° |
| 2026-04-25 14:13 | -6.34979 | -53.80317 | 36007 ft | 459 kts | 330° |
| 2026-04-25 14:13 | -6.29627 | -53.83769 | 36005 ft | 459 kts | 330° |
| 2026-04-25 14:14 | -6.24253 | -53.87234 | 36004 ft | 459 kts | 330° |
| 2026-04-25 14:14 | -6.18878 | -53.90699 | 36006 ft | 459 kts | 330° |
| 2026-04-25 14:15 | -6.13499 | -53.94166 | 36005 ft | 459 kts | 330° |
| 2026-04-25 14:15 | -6.08115 | -53.97636 | 36007 ft | 460 kts | 330° |
| 2026-04-25 14:16 | -6.02721 | -54.01111 | 36006 ft | 460 kts | 330° |
| 2026-04-25 14:16 | -5.97326 | -54.04585 | 36007 ft | 461 kts | 330° |
| 2026-04-25 14:17 | -5.91955 | -54.08044 | 36003 ft | 461 kts | 330° |
| 2026-04-25 14:17 | -5.86554 | -54.11521 | 36008 ft | 461 kts | 330° |
| 2026-04-25 14:18 | -5.81149 | -54.15000 | 36006 ft | 462 kts | 330° |
| 2026-04-25 14:18 | -5.75735 | -54.18485 | 36010 ft | 462 kts | 330° |
| 2026-04-25 14:19 | -5.70326 | -54.21966 | 36007 ft | 462 kts | 330° |
| 2026-04-25 14:19 | -5.64912 | -54.25459 | 36008 ft | 462 kts | 330° |
| 2026-04-25 14:20 | -5.59566 | -54.28992 | 36007 ft | 462 kts | 329° |
| 2026-04-25 14:20 | -5.54198 | -54.32563 | 36009 ft | 462 kts | 329° |
| 2026-04-25 14:21 | -5.48824 | -54.36127 | 36013 ft | 462 kts | 329° |
| 2026-04-25 14:21 | -5.43449 | -54.39685 | 36007 ft | 462 kts | 329° |
| 2026-04-25 14:22 | -5.38074 | -54.43240 | 36011 ft | 462 kts | 329° |
| 2026-04-25 14:22 | -5.32707 | -54.46789 | 36017 ft | 462 kts | 329° |
| 2026-04-25 14:23 | -5.27337 | -54.50340 | 36014 ft | 462 kts | 329° |
| 2026-04-25 14:23 | -5.21978 | -54.53883 | 36016 ft | 461 kts | 329° |
| 2026-04-25 14:24 | -5.16648 | -54.57406 | 36013 ft | 461 kts | 329° |
| 2026-04-25 14:24 | -5.11285 | -54.60950 | 36012 ft | 461 kts | 329° |
| 2026-04-25 14:25 | -5.05929 | -54.64490 | 36015 ft | 461 kts | 329° |
| 2026-04-25 14:25 | -5.00567 | -54.68032 | 36016 ft | 461 kts | 329° |
| 2026-04-25 14:26 | -4.95205 | -54.71576 | 36018 ft | 461 kts | 329° |
| 2026-04-25 14:26 | -4.89873 | -54.75100 | 36012 ft | 462 kts | 329° |
| 2026-04-25 14:27 | -4.84498 | -54.78652 | 36014 ft | 462 kts | 329° |
| 2026-04-25 14:27 | -4.79117 | -54.82208 | 36014 ft | 463 kts | 329° |
| 2026-04-25 14:28 | -4.73763 | -54.85746 | 36012 ft | 464 kts | 329° |
| 2026-04-25 14:28 | -4.68365 | -54.89311 | 36010 ft | 464 kts | 329° |
| 2026-04-25 14:29 | -4.62966 | -54.92877 | 36016 ft | 465 kts | 329° |
| 2026-04-25 14:29 | -4.57561 | -54.96446 | 36016 ft | 466 kts | 329° |
| 2026-04-25 14:30 | -4.52149 | -55.00019 | 36012 ft | 466 kts | 329° |
| 2026-04-25 14:30 | -4.44022 | -55.05384 | 36010 ft | 466 kts | 329° |
| 2026-04-25 14:31 | -4.38593 | -55.08966 | 36004 ft | 467 kts | 329° |
| 2026-04-25 14:31 | -4.33196 | -55.12527 | 36004 ft | 467 kts | 329° |
| 2026-04-25 14:32 | -4.27756 | -55.16116 | 36008 ft | 467 kts | 330° |
| 2026-04-25 14:32 | -4.22319 | -55.19702 | 36004 ft | 467 kts | 330° |
| 2026-04-25 14:33 | -4.16916 | -55.23265 | 35999 ft | 468 kts | 330° |
| 2026-04-25 14:33 | -4.11474 | -55.26854 | 36007 ft | 468 kts | 330° |
| 2026-04-25 14:34 | -4.06037 | -55.30439 | 35995 ft | 468 kts | 330° |
| 2026-04-25 14:34 | -4.00598 | -55.34025 | 36000 ft | 467 kts | 330° |
| 2026-04-25 14:35 | -3.95172 | -55.37605 | 35999 ft | 467 kts | 330° |
| 2026-04-25 14:35 | -3.89747 | -55.41187 | 35998 ft | 466 kts | 330° |
| 2026-04-25 14:36 | -3.84334 | -55.44760 | 35997 ft | 466 kts | 330° |
| 2026-04-25 14:36 | -3.78927 | -55.48329 | 35984 ft | 465 kts | 330° |
| 2026-04-25 14:37 | -3.73558 | -55.51873 | 35993 ft | 464 kts | 330° |
| 2026-04-25 14:37 | -3.68160 | -55.55434 | 35989 ft | 464 kts | 330° |
| 2026-04-25 14:38 | -3.62764 | -55.58994 | 36000 ft | 464 kts | 330° |
| 2026-04-25 14:38 | -3.57369 | -55.62553 | 35991 ft | 464 kts | 330° |
| 2026-04-25 14:39 | -3.52009 | -55.66089 | 36002 ft | 464 kts | 330° |
| 2026-04-25 14:39 | -3.46614 | -55.69646 | 35996 ft | 465 kts | 330° |
| 2026-04-25 14:40 | -3.41213 | -55.73208 | 35997 ft | 465 kts | 330° |
| 2026-04-25 14:40 | -3.35799 | -55.76778 | 36000 ft | 466 kts | 330° |
| 2026-04-25 14:41 | -3.30381 | -55.80350 | 35988 ft | 466 kts | 330° |
| 2026-04-25 14:41 | -3.24959 | -55.83925 | 35995 ft | 466 kts | 330° |
| 2026-04-25 14:42 | -3.21365 | -55.86294 | 35991 ft | 466 kts | 330° |
| 2026-04-25 14:42 | -3.14144 | -55.91051 | 35986 ft | 466 kts | 330° |
| 2026-04-25 14:43 | -3.08722 | -55.94614 | 35984 ft | 466 kts | 330° |
| 2026-04-25 14:43 | -3.03302 | -55.98175 | 35993 ft | 466 kts | 330° |
| 2026-04-25 14:44 | -2.97877 | -56.01741 | 35982 ft | 466 kts | 330° |
| 2026-04-25 14:44 | -2.92450 | -56.05308 | 35994 ft | 466 kts | 330° |
| 2026-04-25 14:45 | -2.87936 | -56.08275 | 35985 ft | 467 kts | 330° |
| 2026-04-25 14:45 | -2.82509 | -56.11842 | 35983 ft | 467 kts | 330° |
| 2026-04-25 14:46 | -2.77076 | -56.15412 | 35993 ft | 468 kts | 330° |
| 2026-04-25 14:46 | -2.71631 | -56.18990 | 35994 ft | 468 kts | 330° |
| 2026-04-25 14:47 | -2.67099 | -56.21968 | 35984 ft | 469 kts | 330° |
| 2026-04-25 14:47 | -2.60758 | -56.26134 | 35985 ft | 469 kts | 330° |
| 2026-04-25 14:48 | -2.55480 | -56.30023 | 35989 ft | 472 kts | 326° |
| 2026-04-25 14:48 | -2.50341 | -56.34134 | 35990 ft | 473 kts | 325° |
| 2026-04-25 14:49 | -2.45205 | -56.38249 | 35989 ft | 473 kts | 325° |
| 2026-04-25 14:49 | -2.40037 | -56.42345 | 35994 ft | 474 kts | 325° |
| 2026-04-25 14:50 | -2.34852 | -56.46431 | 35994 ft | 474 kts | 325° |
| 2026-04-25 14:50 | -2.29660 | -56.50518 | 35982 ft | 475 kts | 325° |
| 2026-04-25 14:51 | -2.24470 | -56.54603 | 35990 ft | 475 kts | 325° |
| 2026-04-25 14:51 | -2.19273 | -56.58695 | 35989 ft | 475 kts | 325° |
| 2026-04-25 14:52 | -2.14082 | -56.62783 | 35992 ft | 475 kts | 325° |
| 2026-04-25 14:52 | -2.09761 | -56.66185 | 35987 ft | 475 kts | 325° |
| 2026-04-25 14:53 | -2.03723 | -56.70939 | 35981 ft | 475 kts | 325° |
| 2026-04-25 14:53 | -1.98537 | -56.75021 | 35987 ft | 474 kts | 325° |
| 2026-04-25 14:54 | -1.93350 | -56.79104 | 35989 ft | 474 kts | 325° |
| 2026-04-25 14:54 | -1.88169 | -56.83182 | 35985 ft | 473 kts | 325° |
| 2026-04-25 14:55 | -1.83002 | -56.87249 | 35987 ft | 472 kts | 325° |
| 2026-04-25 14:55 | -1.77838 | -56.91313 | 35990 ft | 472 kts | 325° |
| 2026-04-25 14:56 | -1.72708 | -56.95349 | 35987 ft | 471 kts | 324° |
| 2026-04-25 14:56 | -1.67555 | -56.99403 | 35988 ft | 471 kts | 324° |
| 2026-04-25 14:57 | -1.62407 | -57.03454 | 35988 ft | 470 kts | 324° |
| 2026-04-25 14:57 | -1.57269 | -57.07496 | 35985 ft | 470 kts | 324° |
| 2026-04-25 14:58 | -1.52128 | -57.11541 | 35987 ft | 470 kts | 324° |
| 2026-04-25 14:58 | -1.46996 | -57.15577 | 35988 ft | 470 kts | 324° |
| 2026-04-25 14:59 | -1.41858 | -57.19619 | 35985 ft | 470 kts | 324° |
| 2026-04-25 14:59 | -1.36724 | -57.23657 | 35989 ft | 470 kts | 324° |
| 2026-04-25 15:00 | -1.31589 | -57.27696 | 35982 ft | 470 kts | 324° |
| 2026-04-25 15:00 | -1.26476 | -57.31717 | 35989 ft | 470 kts | 324° |
| 2026-04-25 15:01 | -1.21334 | -57.35761 | 35996 ft | 470 kts | 324° |
| 2026-04-25 15:01 | -1.16192 | -57.39805 | 35993 ft | 470 kts | 324° |
| 2026-04-25 15:02 | -1.11087 | -57.43819 | 35993 ft | 470 kts | 324° |
| 2026-04-25 15:02 | -1.05936 | -57.47869 | 35989 ft | 470 kts | 324° |
| 2026-04-25 15:03 | -1.00792 | -57.51914 | 35996 ft | 470 kts | 324° |
| 2026-04-25 15:03 | -0.95675 | -57.55937 | 36000 ft | 470 kts | 324° |
| 2026-04-25 15:04 | -0.90525 | -57.59986 | 35989 ft | 470 kts | 324° |
| 2026-04-25 15:04 | -0.85383 | -57.64029 | 35991 ft | 470 kts | 324° |
| 2026-04-25 15:05 | -0.80245 | -57.68069 | 35991 ft | 469 kts | 324° |
| 2026-04-25 15:06 | -0.72576 | -57.74100 | 35995 ft | 469 kts | 324° |
| 2026-04-25 15:06 | -0.67443 | -57.78138 | 35994 ft | 469 kts | 323° |
| 2026-04-25 15:07 | -0.62732 | -57.82672 | 35999 ft | 472 kts | 315° |
| 2026-04-25 15:07 | -0.58283 | -57.87501 | 35994 ft | 472 kts | 314° |
| 2026-04-25 15:08 | -0.53849 | -57.92299 | 35992 ft | 472 kts | 315° |
| 2026-04-25 15:08 | -0.49360 | -57.97088 | 35994 ft | 472 kts | 315° |
| 2026-04-25 15:09 | -0.44851 | -58.01870 | 35992 ft | 472 kts | 315° |
| 2026-04-25 15:09 | -0.38085 | -58.09041 | 35993 ft | 473 kts | 315° |
| 2026-04-25 15:10 | -0.33572 | -58.13827 | 35999 ft | 473 kts | 315° |
| 2026-04-25 15:11 | -0.26804 | -58.21006 | 35999 ft | 473 kts | 315° |
| 2026-04-25 15:11 | -0.22320 | -58.25762 | 36002 ft | 473 kts | 315° |
| 2026-04-25 15:12 | -0.15553 | -58.32941 | 36000 ft | 473 kts | 315° |
| 2026-04-25 15:12 | -0.12538 | -58.36139 | 36001 ft | 473 kts | 315° |
| 2026-04-25 15:13 | -0.04287 | -58.44893 | 35998 ft | 473 kts | 315° |
| 2026-04-25 15:14 | 0.00226 | -58.49679 | 36006 ft | 473 kts | 315° |
| 2026-04-25 15:14 | 0.04738 | -58.54457 | 35996 ft | 473 kts | 315° |
| 2026-04-25 15:15 | 0.09256 | -58.59241 | 35998 ft | 473 kts | 315° |
| 2026-04-25 15:15 | 0.13775 | -58.64026 | 36000 ft | 473 kts | 315° |
| 2026-04-25 15:16 | 0.18262 | -58.68780 | 35993 ft | 473 kts | 315° |
| 2026-04-25 15:16 | 0.25035 | -58.75956 | 35991 ft | 473 kts | 315° |
| 2026-04-25 15:17 | 0.31812 | -58.83135 | 35994 ft | 473 kts | 315° |
| 2026-04-25 15:18 | 0.36333 | -58.87925 | 35989 ft | 473 kts | 315° |
| 2026-04-25 15:18 | 0.43077 | -58.95070 | 35985 ft | 473 kts | 315° |
| 2026-04-25 15:19 | 0.46097 | -58.98270 | 35982 ft | 473 kts | 315° |
| 2026-04-25 15:19 | 0.51995 | -59.04519 | 35987 ft | 474 kts | 315° |
| 2026-04-25 15:20 | 0.56520 | -59.09314 | 35990 ft | 474 kts | 315° |
| 2026-04-25 15:20 | 0.61042 | -59.14106 | 35981 ft | 474 kts | 315° |
| 2026-04-25 15:21 | 0.65564 | -59.18898 | 35986 ft | 474 kts | 315° |
| 2026-04-25 15:21 | 0.70062 | -59.23664 | 35979 ft | 474 kts | 315° |
| 2026-04-25 15:22 | 0.74588 | -59.28462 | 35982 ft | 474 kts | 315° |
| 2026-04-25 15:22 | 0.79113 | -59.33258 | 35983 ft | 474 kts | 315° |
| 2026-04-25 15:23 | 0.83802 | -59.37869 | 35983 ft | 472 kts | 319° |
| 2026-04-25 15:23 | 0.88633 | -59.42262 | 35984 ft | 472 kts | 320° |
| 2026-04-25 15:24 | 0.93517 | -59.46718 | 35696 ft | 475 kts | 319° |
| 2026-04-25 15:24 | 0.95912 | -59.48926 | 35340 ft | 471 kts | 319° |
| 2026-04-25 15:24 | 0.96722 | -59.49675 | 35200 ft | 469 kts | 319° |
| 2026-04-25 15:25 | 1.00676 | -59.53342 | 34532 ft | 464 kts | 319° |
| 2026-04-25 15:25 | 1.03029 | -59.55525 | 34109 ft | 461 kts | 319° |
| 2026-04-25 15:25 | 1.05377 | -59.57702 | 33641 ft | 459 kts | 319° |
| 2026-04-25 15:25 | 1.07710 | -59.59864 | 33198 ft | 455 kts | 319° |
| 2026-04-25 15:26 | 1.10027 | -59.62010 | 32770 ft | 452 kts | 319° |
| 2026-04-25 15:26 | 1.12325 | -59.64139 | 32354 ft | 448 kts | 319° |
| 2026-04-25 15:26 | 1.14605 | -59.66251 | 31947 ft | 445 kts | 319° |
| 2026-04-25 15:26 | 1.16870 | -59.68346 | 31542 ft | 441 kts | 319° |
| 2026-04-25 15:27 | 1.19114 | -59.70420 | 31146 ft | 438 kts | 319° |
| 2026-04-25 15:27 | 1.21348 | -59.72485 | 30745 ft | 436 kts | 319° |
| 2026-04-25 15:27 | 1.25740 | -59.76545 | 29922 ft | 431 kts | 318° |
| 2026-04-25 15:28 | 1.27933 | -59.78574 | 29463 ft | 427 kts | 318° |
| 2026-04-25 15:28 | 1.30103 | -59.80581 | 29024 ft | 424 kts | 318° |
| 2026-04-25 15:28 | 1.32260 | -59.82576 | 28600 ft | 420 kts | 318° |
| 2026-04-25 15:28 | 1.34397 | -59.84554 | 28187 ft | 417 kts | 318° |
| 2026-04-25 15:29 | 1.36519 | -59.86517 | 27774 ft | 413 kts | 318° |
| 2026-04-25 15:29 | 1.38622 | -59.88462 | 27376 ft | 410 kts | 318° |
| 2026-04-25 15:29 | 1.40703 | -59.90388 | 26972 ft | 407 kts | 318° |
| 2026-04-25 15:29 | 1.42774 | -59.92304 | 26573 ft | 404 kts | 318° |
| 2026-04-25 15:30 | 1.44809 | -59.94186 | 26186 ft | 401 kts | 318° |
| 2026-04-25 15:30 | 1.46877 | -59.96100 | 25770 ft | 399 kts | 318° |
| 2026-04-25 15:30 | 1.48884 | -59.97957 | 25377 ft | 397 kts | 318° |
| 2026-04-25 15:30 | 1.50909 | -59.99831 | 24977 ft | 395 kts | 318° |
| 2026-04-25 15:31 | 1.52926 | -60.01698 | 24568 ft | 394 kts | 317° |
| 2026-04-25 15:31 | 1.54934 | -60.03556 | 24173 ft | 392 kts | 317° |
| 2026-04-25 15:31 | 1.56966 | -60.05373 | 23774 ft | 391 kts | 322° |
| 2026-04-25 15:31 | 1.59161 | -60.06966 | 23351 ft | 389 kts | 326° |
| 2026-04-25 15:32 | 1.61391 | -60.08474 | 22913 ft | 386 kts | 327° |
| 2026-04-25 15:32 | 1.63617 | -60.09949 | 22506 ft | 383 kts | 327° |
| 2026-04-25 15:32 | 1.65827 | -60.11411 | 22120 ft | 380 kts | 327° |
| 2026-04-25 15:33 | 1.70187 | -60.14323 | 21343 ft | 374 kts | 326° |
| 2026-04-25 15:33 | 1.72327 | -60.15763 | 20950 ft | 365 kts | 326° |
| 2026-04-25 15:33 | 1.74378 | -60.17148 | 20584 ft | 355 kts | 326° |
| 2026-04-25 15:33 | 1.76408 | -60.18523 | 20247 ft | 352 kts | 326° |
| 2026-04-25 15:34 | 1.78431 | -60.19892 | 19884 ft | 350 kts | 326° |
| 2026-04-25 15:34 | 1.80440 | -60.21254 | 19544 ft | 349 kts | 326° |
| 2026-04-25 15:34 | 1.82451 | -60.22616 | 19162 ft | 349 kts | 326° |
| 2026-04-25 15:34 | 1.83128 | -60.23075 | 19045 ft | 348 kts | 326° |
| 2026-04-25 15:35 | 1.87785 | -60.26232 | 18195 ft | 346 kts | 327° |
| 2026-04-25 15:35 | 1.89771 | -60.27579 | 17789 ft | 345 kts | 326° |
| 2026-04-25 15:35 | 1.91755 | -60.28923 | 17416 ft | 343 kts | 326° |
| 2026-04-25 15:36 | 1.95670 | -60.31579 | 16691 ft | 338 kts | 326° |
| 2026-04-25 15:36 | 1.97615 | -60.32898 | 16323 ft | 336 kts | 326° |
| 2026-04-25 15:36 | 1.99543 | -60.34204 | 15976 ft | 334 kts | 326° |
| 2026-04-25 15:37 | 2.01464 | -60.35507 | 15634 ft | 332 kts | 326° |
| 2026-04-25 15:37 | 2.03379 | -60.36805 | 15287 ft | 331 kts | 326° |
| 2026-04-25 15:37 | 2.05281 | -60.38095 | 14944 ft | 329 kts | 326° |
| 2026-04-25 15:37 | 2.07171 | -60.39377 | 14595 ft | 328 kts | 326° |
| 2026-04-25 15:38 | 2.09060 | -60.40658 | 14248 ft | 327 kts | 326° |
| 2026-04-25 15:38 | 2.10939 | -60.41933 | 13889 ft | 327 kts | 326° |
| 2026-04-25 15:38 | 2.12824 | -60.43211 | 13514 ft | 327 kts | 326° |
| 2026-04-25 15:38 | 2.14702 | -60.44485 | 13149 ft | 325 kts | 326° |
| 2026-04-25 15:39 | 2.16565 | -60.45748 | 12792 ft | 323 kts | 326° |
| 2026-04-25 15:39 | 2.18424 | -60.47009 | 12449 ft | 321 kts | 326° |
| 2026-04-25 15:39 | 2.20265 | -60.48258 | 12105 ft | 319 kts | 326° |
| 2026-04-25 15:39 | 2.22080 | -60.49489 | 11775 ft | 317 kts | 326° |
| 2026-04-25 15:40 | 2.23906 | -60.50728 | 11438 ft | 316 kts | 326° |
| 2026-04-25 15:40 | 2.25132 | -60.51559 | 11206 ft | 315 kts | 326° |
| 2026-04-25 15:40 | 2.27522 | -60.53181 | 10771 ft | 313 kts | 326° |
| 2026-04-25 15:40 | 2.29320 | -60.54400 | 10437 ft | 311 kts | 326° |
| 2026-04-25 15:41 | 2.31098 | -60.55607 | 10226 ft | 305 kts | 326° |
| 2026-04-25 15:41 | 2.32832 | -60.56783 | 10069 ft | 298 kts | 326° |
| 2026-04-25 15:41 | 2.34530 | -60.57936 | 9842 ft | 294 kts | 326° |
| 2026-04-25 15:41 | 2.36222 | -60.59084 | 9526 ft | 292 kts | 326° |
| 2026-04-25 15:42 | 2.37900 | -60.60222 | 9237 ft | 291 kts | 326° |
| 2026-04-25 15:42 | 2.39581 | -60.61363 | 8922 ft | 291 kts | 326° |
| 2026-04-25 15:42 | 2.41250 | -60.62496 | 8623 ft | 290 kts | 326° |
| 2026-04-25 15:42 | 2.42915 | -60.63625 | 8322 ft | 288 kts | 326° |
| 2026-04-25 15:43 | 2.44574 | -60.64751 | 8047 ft | 288 kts | 326° |
| 2026-04-25 15:43 | 2.46208 | -60.65860 | 7746 ft | 287 kts | 326° |
| 2026-04-25 15:43 | 2.47860 | -60.66981 | 7452 ft | 287 kts | 326° |
| 2026-04-25 15:43 | 2.49511 | -60.68102 | 7151 ft | 286 kts | 326° |
| 2026-04-25 15:44 | 2.51138 | -60.69207 | 6852 ft | 279 kts | 326° |
| 2026-04-25 15:44 | 2.52727 | -60.70285 | 6573 ft | 273 kts | 326° |
| 2026-04-25 15:44 | 2.54299 | -60.71352 | 6307 ft | 273 kts | 326° |
| 2026-04-25 15:44 | 2.55875 | -60.72422 | 6011 ft | 274 kts | 326° |
| 2026-04-25 15:45 | 2.57451 | -60.73492 | 5724 ft | 274 kts | 326° |
| 2026-04-25 15:45 | 2.59027 | -60.74561 | 5436 ft | 274 kts | 327° |
| 2026-04-25 15:45 | 2.60605 | -60.75633 | 5142 ft | 273 kts | 327° |
| 2026-04-25 15:45 | 2.61663 | -60.76353 | 4945 ft | 272 kts | 327° |
| 2026-04-25 15:46 | 2.63728 | -60.77754 | 4587 ft | 270 kts | 326° |
| 2026-04-25 15:46 | 2.65283 | -60.78810 | 4291 ft | 269 kts | 327° |
| 2026-04-25 15:46 | 2.66825 | -60.79856 | 4091 ft | 265 kts | 327° |
| 2026-04-25 15:46 | 2.68361 | -60.80820 | 3960 ft | 257 kts | 333° |
| 2026-04-25 15:47 | 2.69926 | -60.81621 | 3830 ft | 246 kts | 334° |
| 2026-04-25 15:47 | 2.71422 | -60.82366 | 3714 ft | 234 kts | 334° |
| 2026-04-25 15:47 | 2.72837 | -60.83078 | 3624 ft | 221 kts | 334° |
| 2026-04-25 15:47 | 2.74161 | -60.83749 | 3514 ft | 207 kts | 335° |
| 2026-04-25 15:48 | 2.75487 | -60.84057 | 3282 ft | 195 kts | 12° |
| 2026-04-25 15:48 | 2.76570 | -60.83405 | 3155 ft | 178 kts | 52° |
| 2026-04-25 15:48 | 2.77359 | -60.82500 | 2928 ft | 167 kts | 49° |
| 2026-04-25 15:48 | 2.78037 | -60.81600 | 2734 ft | 158 kts | 57° |
| 2026-04-25 15:49 | 2.78623 | -60.80696 | 2527 ft | 156 kts | 60° |
| 2026-04-25 15:49 | 2.79154 | -60.79751 | 2339 ft | 156 kts | 63° |
| 2026-04-25 15:49 | 2.79657 | -60.78783 | 2128 ft | 156 kts | 64° |
| 2026-04-25 15:49 | 2.80147 | -60.77823 | 1934 ft | 153 kts | 63° |
| 2026-04-25 15:50 | 2.80627 | -60.76880 | 1738 ft | 153 kts | 64° |
| 2026-04-25 15:50 | 2.81112 | -60.75924 | 1539 ft | 155 kts | 64° |
| 2026-04-25 15:50 | 2.81599 | -60.74966 | 1337 ft | 154 kts | 64° |
| 2026-04-25 15:50 | 2.82083 | -60.74015 | 1150 ft | 154 kts | 64° |
| 2026-04-25 15:51 | 2.82566 | -60.73064 | 950 ft | 152 kts | 64° |
| 2026-04-25 15:51 | 2.82881 | -60.72448 | 826 ft | 149 kts | 64° |
| 2026-04-25 15:51 | 2.83523 | -60.71188 | 562 ft | 149 kts | 64° |
| 2026-04-25 15:51 | 2.83982 | -60.70278 | 353 ft | 144 kts | 65° |
| 2026-04-25 15:52 | 2.84411 | -60.69430 | 277 ft | 116 kts | 62° |
| 2026-04-25 15:52 | 2.84681 | -60.68908 | 283 ft | 53 kts | 63° |
| 2026-04-25 15:52 | 2.84831 | -60.68615 | 279 ft | 41 kts | 63° |
| 2026-04-25 15:52 | 2.84883 | -60.68480 | 279 ft | 14 kts | 115° |
| 2026-04-25 15:53 | 2.84800 | -60.68430 | 283 ft | 14 kts | 154° |
| 2026-04-25 15:53 | 2.84733 | -60.68477 | 279 ft | 13 kts | 245° |
| 2026-04-25 15:53 | 2.84692 | -60.68558 | 279 ft | 13 kts | 243° |
| 2026-04-25 15:53 | 2.84651 | -60.68637 | 279 ft | 13 kts | 242° |
| 2026-04-25 15:54 | 2.84612 | -60.68714 | 283 ft | 12 kts | 243° |
| 2026-04-25 15:54 | 2.84574 | -60.68788 | 279 ft | 12 kts | 243° |
| 2026-04-25 15:54 | 2.84537 | -60.68861 | 280 ft | 12 kts | 243° |
| 2026-04-25 15:54 | 2.84501 | -60.68932 | 279 ft | 11 kts | 243° |
| 2026-04-25 15:55 | 2.84466 | -60.69002 | 281 ft | 11 kts | 243° |
| 2026-04-25 15:55 | 2.84431 | -60.69069 | 279 ft | 11 kts | 243° |
| 2026-04-25 15:55 | 2.84397 | -60.69134 | 282 ft | 10 kts | 243° |
| 2026-04-25 15:55 | 2.84365 | -60.69197 | 278 ft | 10 kts | 243° |
| 2026-04-25 15:56 | 2.84318 | -60.69235 | 279 ft | 10 kts | 166° |
| 2026-04-25 15:56 | 2.84265 | -60.69266 | 279 ft | 10 kts | 219° |
| 2026-04-25 15:56 | 2.84216 | -60.69255 | 279 ft | 3 kts | 152° |
| 2026-04-25 15:56 | 2.84201 | -60.69247 | 279 ft | 2 kts | 153° |
| 2026-04-25 15:57 | 2.84200 | -60.69246 | 279 ft | 0 kts | 153° |